sensor_id;sensor_type;location;lat;lon;timestamp;P1;durP1;ratioP1;P2;durP2;ratioP2
37495;SDS011;23346;52.088;4.746;2023-02-11T00:02:01;21.50;;;3.07;;
37495;SDS011;23346;52.088;4.746;2023-02-11T00:04:29;31.87;;;3.90;;
37495;SDS011;23346;52.088;4.746;2023-02-11T00:06:55;15.50;;;2.87;;
37495;SDS011;23346;52.088;4.746;2023-02-11T00:09:21;18.93;;;3.07;;
37495;SDS011;23346;52.088;4.746;2023-02-11T00:11:47;8.33;;;2.73;;
37495;SDS011;23346;52.088;4.746;2023-02-11T00:14:13;19.50;;;3.93;;
37495;SDS011;23346;52.088;4.746;2023-02-11T00:16:39;12.93;;;2.90;;
37495;SDS011;23346;52.088;4.746;2023-02-11T00:19:05;11.07;;;2.27;;
37495;SDS011;23346;52.088;4.746;2023-02-11T00:21:32;22.70;;;3.10;;
37495;SDS011;23346;52.088;4.746;2023-02-11T00:23:58;18.53;;;3.50;;
37495;SDS011;23346;52.088;4.746;2023-02-11T00:26:32;18.13;;;3.37;;
37495;SDS011;23346;52.088;4.746;2023-02-11T00:28:59;16.53;;;3.33;;
37495;SDS011;23346;52.088;4.746;2023-02-11T00:31:25;17.23;;;3.10;;
37495;SDS011;23346;52.088;4.746;2023-02-11T00:33:52;25.60;;;3.23;;
37495;SDS011;23346;52.088;4.746;2023-02-11T00:36:20;20.77;;;3.50;;
37495;SDS011;23346;52.088;4.746;2023-02-11T00:38:47;14.37;;;2.90;;
37495;SDS011;23346;52.088;4.746;2023-02-11T00:41:14;28.63;;;4.07;;
37495;SDS011;23346;52.088;4.746;2023-02-11T00:43:40;17.53;;;3.37;;
37495;SDS011;23346;52.088;4.746;2023-02-11T00:46:06;14.27;;;3.07;;
37495;SDS011;23346;52.088;4.746;2023-02-11T00:48:32;21.00;;;3.67;;
37495;SDS011;23346;52.088;4.746;2023-02-11T00:50:58;28.00;;;5.13;;
37495;SDS011;23346;52.088;4.746;2023-02-11T00:53:24;20.20;;;2.87;;
37495;SDS011;23346;52.088;4.746;2023-02-11T00:55:51;23.63;;;3.57;;
37495;SDS011;23346;52.088;4.746;2023-02-11T00:58:17;15.37;;;3.37;;
37495;SDS011;23346;52.088;4.746;2023-02-11T01:00:43;29.03;;;3.53;;
37495;SDS011;23346;52.088;4.746;2023-02-11T01:03:09;19.67;;;3.00;;
37495;SDS011;23346;52.088;4.746;2023-02-11T01:05:35;11.77;;;2.93;;
37495;SDS011;23346;52.088;4.746;2023-02-11T01:08:01;16.50;;;2.93;;
37495;SDS011;23346;52.088;4.746;2023-02-11T01:10:27;18.60;;;3.13;;
37495;SDS011;23346;52.088;4.746;2023-02-11T01:12:53;13.30;;;2.70;;
37495;SDS011;23346;52.088;4.746;2023-02-11T01:15:20;17.53;;;3.13;;
37495;SDS011;23346;52.088;4.746;2023-02-11T01:17:46;14.43;;;2.80;;
37495;SDS011;23346;52.088;4.746;2023-02-11T01:20:14;17.13;;;2.97;;
37495;SDS011;23346;52.088;4.746;2023-02-11T01:22:40;22.67;;;3.33;;
37495;SDS011;23346;52.088;4.746;2023-02-11T01:25:07;20.70;;;3.57;;
37495;SDS011;23346;52.088;4.746;2023-02-11T01:27:33;12.20;;;2.73;;
37495;SDS011;23346;52.088;4.746;2023-02-11T01:29:59;20.73;;;4.10;;
37495;SDS011;23346;52.088;4.746;2023-02-11T01:32:25;16.93;;;3.97;;
37495;SDS011;23346;52.088;4.746;2023-02-11T01:34:51;16.20;;;3.37;;
37495;SDS011;23346;52.088;4.746;2023-02-11T01:37:17;18.27;;;3.97;;
37495;SDS011;23346;52.088;4.746;2023-02-11T01:39:43;15.97;;;3.20;;
37495;SDS011;23346;52.088;4.746;2023-02-11T01:42:16;16.63;;;2.93;;
37495;SDS011;23346;52.088;4.746;2023-02-11T01:44:43;7.47;;;2.60;;
37495;SDS011;23346;52.088;4.746;2023-02-11T01:47:09;15.70;;;3.40;;
37495;SDS011;23346;52.088;4.746;2023-02-11T01:49:36;25.80;;;3.17;;
37495;SDS011;23346;52.088;4.746;2023-02-11T01:54:34;16.73;;;4.30;;
37495;SDS011;23346;52.088;4.746;2023-02-11T01:57:20;20.37;;;4.43;;
37495;SDS011;23346;52.088;4.746;2023-02-11T02:02:14;17.17;;;4.67;;
37495;SDS011;23346;52.088;4.746;2023-02-11T02:08:09;25.87;;;4.00;;
37495;SDS011;23346;52.088;4.746;2023-02-11T02:10:26;16.40;;;4.33;;
37495;SDS011;23346;52.088;4.746;2023-02-11T02:12:52;24.43;;;4.87;;
37495;SDS011;23346;52.088;4.746;2023-02-11T02:18:01;20.00;;;4.43;;
37495;SDS011;23346;52.088;4.746;2023-02-11T02:20:46;12.40;;;3.80;;
37495;SDS011;23346;52.088;4.746;2023-02-11T02:23:31;16.43;;;3.57;;
37495;SDS011;23346;52.088;4.746;2023-02-11T02:31:52;17.03;;;3.67;;
37495;SDS011;23346;52.088;4.746;2023-02-11T02:34:22;14.80;;;3.97;;
37495;SDS011;23346;52.088;4.746;2023-02-11T02:36:56;26.33;;;4.53;;
37495;SDS011;23346;52.088;4.746;2023-02-11T02:39:24;24.30;;;4.63;;
37495;SDS011;23346;52.088;4.746;2023-02-11T02:41:52;20.77;;;3.87;;
37495;SDS011;23346;52.088;4.746;2023-02-11T02:44:19;17.77;;;3.77;;
37495;SDS011;23346;52.088;4.746;2023-02-11T02:46:45;19.23;;;4.53;;
37495;SDS011;23346;52.088;4.746;2023-02-11T02:49:12;15.47;;;3.50;;
37495;SDS011;23346;52.088;4.746;2023-02-11T03:04:30;16.67;;;3.60;;
37495;SDS011;23346;52.088;4.746;2023-02-11T03:07:02;13.47;;;3.63;;
37495;SDS011;23346;52.088;4.746;2023-02-11T03:09:38;22.00;;;4.13;;
37495;SDS011;23346;52.088;4.746;2023-02-11T03:12:05;17.57;;;3.60;;
37495;SDS011;23346;52.088;4.746;2023-02-11T03:14:32;15.10;;;3.90;;
37495;SDS011;23346;52.088;4.746;2023-02-11T03:16:59;14.03;;;4.33;;
37495;SDS011;23346;52.088;4.746;2023-02-11T03:19:28;14.33;;;4.53;;
37495;SDS011;23346;52.088;4.746;2023-02-11T03:21:55;24.63;;;5.13;;
37495;SDS011;23346;52.088;4.746;2023-02-11T03:24:32;20.37;;;5.03;;
37495;SDS011;23346;52.088;4.746;2023-02-11T03:27:09;18.83;;;5.17;;
37495;SDS011;23346;52.088;4.746;2023-02-11T03:29:38;19.87;;;5.30;;
37495;SDS011;23346;52.088;4.746;2023-02-11T03:32:11;14.50;;;4.30;;
37495;SDS011;23346;52.088;4.746;2023-02-11T03:37:12;15.57;;;4.60;;
37495;SDS011;23346;52.088;4.746;2023-02-11T03:39:40;14.53;;;4.43;;
37495;SDS011;23346;52.088;4.746;2023-02-11T03:42:07;17.53;;;5.57;;
37495;SDS011;23346;52.088;4.746;2023-02-11T03:44:43;19.83;;;5.07;;
37495;SDS011;23346;52.088;4.746;2023-02-11T03:47:09;20.90;;;5.07;;
37495;SDS011;23346;52.088;4.746;2023-02-11T03:49:38;17.80;;;5.80;;
37495;SDS011;23346;52.088;4.746;2023-02-11T03:52:05;18.97;;;4.83;;
37495;SDS011;23346;52.088;4.746;2023-02-11T03:54:35;17.07;;;5.23;;
37495;SDS011;23346;52.088;4.746;2023-02-11T03:57:01;16.53;;;5.80;;
37495;SDS011;23346;52.088;4.746;2023-02-11T03:59:27;25.77;;;5.90;;
37495;SDS011;23346;52.088;4.746;2023-02-11T04:01:53;22.23;;;5.67;;
37495;SDS011;23346;52.088;4.746;2023-02-11T04:04:19;20.17;;;4.83;;
37495;SDS011;23346;52.088;4.746;2023-02-11T04:06:45;22.43;;;5.73;;
37495;SDS011;23346;52.088;4.746;2023-02-11T04:09:12;24.77;;;7.47;;
37495;SDS011;23346;52.088;4.746;2023-02-11T04:11:39;29.67;;;6.60;;
37495;SDS011;23346;52.088;4.746;2023-02-11T04:14:05;20.80;;;6.50;;
37495;SDS011;23346;52.088;4.746;2023-02-11T04:16:31;37.67;;;7.53;;
37495;SDS011;23346;52.088;4.746;2023-02-11T04:18:57;26.03;;;7.00;;
37495;SDS011;23346;52.088;4.746;2023-02-11T04:21:23;23.47;;;6.67;;
37495;SDS011;23346;52.088;4.746;2023-02-11T04:23:49;27.77;;;7.63;;
37495;SDS011;23346;52.088;4.746;2023-02-11T04:26:15;28.20;;;6.83;;
37495;SDS011;23346;52.088;4.746;2023-02-11T04:28:41;19.67;;;6.47;;
37495;SDS011;23346;52.088;4.746;2023-02-11T04:31:07;30.97;;;8.30;;
37495;SDS011;23346;52.088;4.746;2023-02-11T04:33:34;25.20;;;7.70;;
37495;SDS011;23346;52.088;4.746;2023-02-11T04:36:00;22.90;;;7.20;;
37495;SDS011;23346;52.088;4.746;2023-02-11T04:38:26;34.47;;;7.03;;
37495;SDS011;23346;52.088;4.746;2023-02-11T04:40:52;25.27;;;7.90;;
37495;SDS011;23346;52.088;4.746;2023-02-11T04:43:18;23.60;;;8.37;;
37495;SDS011;23346;52.088;4.746;2023-02-11T04:45:44;36.20;;;9.07;;
37495;SDS011;23346;52.088;4.746;2023-02-11T04:48:10;29.70;;;8.87;;
37495;SDS011;23346;52.088;4.746;2023-02-11T04:50:36;35.90;;;10.30;;
37495;SDS011;23346;52.088;4.746;2023-02-11T04:53:02;28.57;;;8.20;;
37495;SDS011;23346;52.088;4.746;2023-02-11T04:55:28;23.87;;;9.00;;
37495;SDS011;23346;52.088;4.746;2023-02-11T04:57:54;25.63;;;8.90;;
37495;SDS011;23346;52.088;4.746;2023-02-11T05:00:20;26.40;;;9.10;;
37495;SDS011;23346;52.088;4.746;2023-02-11T05:02:46;29.93;;;9.60;;
37495;SDS011;23346;52.088;4.746;2023-02-11T05:05:12;33.87;;;8.17;;
37495;SDS011;23346;52.088;4.746;2023-02-11T05:07:38;23.30;;;9.67;;
37495;SDS011;23346;52.088;4.746;2023-02-11T05:10:05;22.63;;;8.37;;
37495;SDS011;23346;52.088;4.746;2023-02-11T05:12:31;30.23;;;10.40;;
37495;SDS011;23346;52.088;4.746;2023-02-11T05:14:57;27.10;;;9.47;;
37495;SDS011;23346;52.088;4.746;2023-02-11T05:17:23;27.67;;;9.83;;
37495;SDS011;23346;52.088;4.746;2023-02-11T05:19:49;37.70;;;11.70;;
37495;SDS011;23346;52.088;4.746;2023-02-11T05:22:15;39.40;;;10.63;;
37495;SDS011;23346;52.088;4.746;2023-02-11T05:24:41;35.03;;;11.13;;
37495;SDS011;23346;52.088;4.746;2023-02-11T05:27:07;36.07;;;11.73;;
37495;SDS011;23346;52.088;4.746;2023-02-11T05:29:33;42.50;;;12.80;;
37495;SDS011;23346;52.088;4.746;2023-02-11T05:31:59;45.27;;;11.63;;
37495;SDS011;23346;52.088;4.746;2023-02-11T05:34:25;38.60;;;11.23;;
37495;SDS011;23346;52.088;4.746;2023-02-11T05:36:51;41.57;;;13.07;;
37495;SDS011;23346;52.088;4.746;2023-02-11T05:39:17;32.67;;;12.13;;
37495;SDS011;23346;52.088;4.746;2023-02-11T05:41:43;37.63;;;12.57;;
37495;SDS011;23346;52.088;4.746;2023-02-11T05:44:09;30.13;;;11.30;;
37495;SDS011;23346;52.088;4.746;2023-02-11T05:46:35;39.20;;;11.80;;
37495;SDS011;23346;52.088;4.746;2023-02-11T05:49:01;35.20;;;12.93;;
37495;SDS011;23346;52.088;4.746;2023-02-11T05:51:27;38.80;;;12.17;;
37495;SDS011;23346;52.088;4.746;2023-02-11T05:53:53;36.03;;;12.87;;
37495;SDS011;23346;52.088;4.746;2023-02-11T05:56:19;38.20;;;13.13;;
37495;SDS011;23346;52.088;4.746;2023-02-11T05:58:45;37.77;;;12.97;;
37495;SDS011;23346;52.088;4.746;2023-02-11T06:01:11;40.40;;;12.53;;
37495;SDS011;23346;52.088;4.746;2023-02-11T06:03:37;35.33;;;12.80;;
37495;SDS011;23346;52.088;4.746;2023-02-11T06:06:03;37.03;;;13.57;;
37495;SDS011;23346;52.088;4.746;2023-02-11T06:08:29;39.93;;;15.57;;
37495;SDS011;23346;52.088;4.746;2023-02-11T06:10:55;40.67;;;13.60;;
37495;SDS011;23346;52.088;4.746;2023-02-11T06:13:21;45.63;;;14.33;;
37495;SDS011;23346;52.088;4.746;2023-02-11T06:15:57;34.47;;;12.57;;
37495;SDS011;23346;52.088;4.746;2023-02-11T06:18:23;43.77;;;13.40;;
37495;SDS011;23346;52.088;4.746;2023-02-11T06:20:49;48.23;;;15.47;;
37495;SDS011;23346;52.088;4.746;2023-02-11T06:23:15;45.30;;;14.33;;
37495;SDS011;23346;52.088;4.746;2023-02-11T06:25:41;46.73;;;13.87;;
37495;SDS011;23346;52.088;4.746;2023-02-11T06:28:07;40.57;;;15.50;;
37495;SDS011;23346;52.088;4.746;2023-02-11T06:30:35;44.27;;;15.00;;
37495;SDS011;23346;52.088;4.746;2023-02-11T06:33:01;45.20;;;15.33;;
37495;SDS011;23346;52.088;4.746;2023-02-11T06:35:27;38.30;;;15.83;;
37495;SDS011;23346;52.088;4.746;2023-02-11T06:37:53;37.87;;;16.00;;
37495;SDS011;23346;52.088;4.746;2023-02-11T06:40:19;41.60;;;15.00;;
37495;SDS011;23346;52.088;4.746;2023-02-11T06:42:45;45.73;;;15.30;;
37495;SDS011;23346;52.088;4.746;2023-02-11T06:45:11;43.50;;;16.27;;
37495;SDS011;23346;52.088;4.746;2023-02-11T06:47:38;51.03;;;16.23;;
37495;SDS011;23346;52.088;4.746;2023-02-11T06:50:05;49.33;;;15.87;;
37495;SDS011;23346;52.088;4.746;2023-02-11T06:52:32;43.77;;;15.87;;
37495;SDS011;23346;52.088;4.746;2023-02-11T06:54:58;49.43;;;16.50;;
37495;SDS011;23346;52.088;4.746;2023-02-11T06:57:24;45.37;;;15.10;;
37495;SDS011;23346;52.088;4.746;2023-02-11T06:59:50;45.00;;;16.97;;
37495;SDS011;23346;52.088;4.746;2023-02-11T07:02:16;42.37;;;16.57;;
37495;SDS011;23346;52.088;4.746;2023-02-11T07:04:42;49.83;;;16.90;;
37495;SDS011;23346;52.088;4.746;2023-02-11T07:07:08;52.03;;;17.10;;
37495;SDS011;23346;52.088;4.746;2023-02-11T07:09:34;45.50;;;16.53;;
37495;SDS011;23346;52.088;4.746;2023-02-11T07:12:00;46.60;;;16.70;;
37495;SDS011;23346;52.088;4.746;2023-02-11T07:14:26;49.20;;;18.93;;
37495;SDS011;23346;52.088;4.746;2023-02-11T07:16:52;53.03;;;17.53;;
37495;SDS011;23346;52.088;4.746;2023-02-11T07:19:18;50.77;;;16.07;;
37495;SDS011;23346;52.088;4.746;2023-02-11T07:21:44;45.30;;;17.37;;
37495;SDS011;23346;52.088;4.746;2023-02-11T07:24:10;58.43;;;18.53;;
37495;SDS011;23346;52.088;4.746;2023-02-11T07:26:36;40.83;;;18.50;;
37495;SDS011;23346;52.088;4.746;2023-02-11T07:29:02;51.30;;;17.77;;
37495;SDS011;23346;52.088;4.746;2023-02-11T07:31:28;47.30;;;19.17;;
37495;SDS011;23346;52.088;4.746;2023-02-11T07:33:55;48.23;;;18.43;;
37495;SDS011;23346;52.088;4.746;2023-02-11T07:36:22;59.23;;;20.50;;
37495;SDS011;23346;52.088;4.746;2023-02-11T07:38:48;48.63;;;19.37;;
37495;SDS011;23346;52.088;4.746;2023-02-11T07:41:15;47.87;;;18.00;;
37495;SDS011;23346;52.088;4.746;2023-02-11T07:43:41;62.10;;;19.23;;
37495;SDS011;23346;52.088;4.746;2023-02-11T07:46:09;46.53;;;19.60;;
37495;SDS011;23346;52.088;4.746;2023-02-11T07:48:35;51.33;;;18.93;;
37495;SDS011;23346;52.088;4.746;2023-02-11T07:51:05;52.57;;;19.17;;
37495;SDS011;23346;52.088;4.746;2023-02-11T07:53:31;48.47;;;17.37;;
37495;SDS011;23346;52.088;4.746;2023-02-11T07:55:57;55.93;;;20.27;;
37495;SDS011;23346;52.088;4.746;2023-02-11T07:58:23;52.20;;;19.83;;
37495;SDS011;23346;52.088;4.746;2023-02-11T08:00:49;58.10;;;21.67;;
37495;SDS011;23346;52.088;4.746;2023-02-11T08:03:15;50.20;;;20.20;;
37495;SDS011;23346;52.088;4.746;2023-02-11T08:05:41;55.67;;;19.23;;
37495;SDS011;23346;52.088;4.746;2023-02-11T08:08:07;44.03;;;19.03;;
37495;SDS011;23346;52.088;4.746;2023-02-11T08:10:33;51.83;;;20.70;;
37495;SDS011;23346;52.088;4.746;2023-02-11T08:13:00;57.70;;;21.53;;
37495;SDS011;23346;52.088;4.746;2023-02-11T08:15:26;51.43;;;19.77;;
37495;SDS011;23346;52.088;4.746;2023-02-11T08:17:52;56.97;;;20.83;;
37495;SDS011;23346;52.088;4.746;2023-02-11T08:20:18;51.93;;;20.83;;
37495;SDS011;23346;52.088;4.746;2023-02-11T08:22:45;53.10;;;20.87;;
37495;SDS011;23346;52.088;4.746;2023-02-11T08:25:11;53.10;;;20.47;;
37495;SDS011;23346;52.088;4.746;2023-02-11T08:27:37;44.97;;;20.03;;
37495;SDS011;23346;52.088;4.746;2023-02-11T08:30:03;55.60;;;20.53;;
37495;SDS011;23346;52.088;4.746;2023-02-11T08:32:29;53.33;;;21.70;;
37495;SDS011;23346;52.088;4.746;2023-02-11T08:34:55;52.93;;;19.97;;
37495;SDS011;23346;52.088;4.746;2023-02-11T08:37:21;52.13;;;20.20;;
37495;SDS011;23346;52.088;4.746;2023-02-11T08:39:47;57.13;;;19.67;;
37495;SDS011;23346;52.088;4.746;2023-02-11T08:42:13;49.47;;;19.77;;
37495;SDS011;23346;52.088;4.746;2023-02-11T08:44:42;51.37;;;19.87;;
37495;SDS011;23346;52.088;4.746;2023-02-11T08:47:08;60.57;;;22.27;;
37495;SDS011;23346;52.088;4.746;2023-02-11T08:49:34;56.50;;;21.17;;
37495;SDS011;23346;52.088;4.746;2023-02-11T08:52:00;58.43;;;21.23;;
37495;SDS011;23346;52.088;4.746;2023-02-11T08:54:28;58.03;;;20.63;;
37495;SDS011;23346;52.088;4.746;2023-02-11T08:56:54;53.37;;;21.27;;
37495;SDS011;23346;52.088;4.746;2023-02-11T08:59:20;60.10;;;21.60;;
37495;SDS011;23346;52.088;4.746;2023-02-11T09:01:46;56.37;;;20.90;;
37495;SDS011;23346;52.088;4.746;2023-02-11T09:04:12;56.97;;;20.90;;
37495;SDS011;23346;52.088;4.746;2023-02-11T09:06:39;49.97;;;20.57;;
37495;SDS011;23346;52.088;4.746;2023-02-11T09:09:05;55.17;;;21.73;;
37495;SDS011;23346;52.088;4.746;2023-02-11T09:11:33;54.33;;;21.03;;
37495;SDS011;23346;52.088;4.746;2023-02-11T09:13:59;60.90;;;20.77;;
37495;SDS011;23346;52.088;4.746;2023-02-11T09:16:27;53.10;;;22.77;;
37495;SDS011;23346;52.088;4.746;2023-02-11T09:18:55;63.07;;;22.20;;
37495;SDS011;23346;52.088;4.746;2023-02-11T09:21:21;57.90;;;21.40;;
37495;SDS011;23346;52.088;4.746;2023-02-11T09:23:47;57.43;;;23.23;;
37495;SDS011;23346;52.088;4.746;2023-02-11T09:26:15;59.47;;;23.37;;
37495;SDS011;23346;52.088;4.746;2023-02-11T09:28:41;58.30;;;22.53;;
37495;SDS011;23346;52.088;4.746;2023-02-11T09:31:09;51.60;;;20.60;;
37495;SDS011;23346;52.088;4.746;2023-02-11T09:33:35;51.67;;;21.70;;
37495;SDS011;23346;52.088;4.746;2023-02-11T09:36:04;48.60;;;20.03;;
37495;SDS011;23346;52.088;4.746;2023-02-11T09:38:31;45.60;;;19.27;;
37495;SDS011;23346;52.088;4.746;2023-02-11T09:40:57;45.03;;;18.63;;
37495;SDS011;23346;52.088;4.746;2023-02-11T09:46:22;39.67;;;16.83;;
37495;SDS011;23346;52.088;4.746;2023-02-11T09:48:49;31.17;;;14.20;;
37495;SDS011;23346;52.088;4.746;2023-02-11T09:51:20;34.43;;;15.03;;
37495;SDS011;23346;52.088;4.746;2023-02-11T09:53:50;38.03;;;14.40;;
37495;SDS011;23346;52.088;4.746;2023-02-11T09:56:18;34.07;;;14.97;;
37495;SDS011;23346;52.088;4.746;2023-02-11T09:58:44;19.57;;;9.50;;
37495;SDS011;23346;52.088;4.746;2023-02-11T10:04:06;35.17;;;14.50;;
37495;SDS011;23346;52.088;4.746;2023-02-11T10:06:48;26.53;;;12.80;;
37495;SDS011;23346;52.088;4.746;2023-02-11T10:22:14;31.77;;;11.40;;
37495;SDS011;23346;52.088;4.746;2023-02-11T10:24:47;25.20;;;11.37;;
37495;SDS011;23346;52.088;4.746;2023-02-11T10:27:19;23.13;;;10.57;;
37495;SDS011;23346;52.088;4.746;2023-02-11T10:29:47;24.73;;;11.63;;
37495;SDS011;23346;52.088;4.746;2023-02-11T10:35:00;21.30;;;9.57;;
37495;SDS011;23346;52.088;4.746;2023-02-11T10:37:27;24.53;;;10.53;;
37495;SDS011;23346;52.088;4.746;2023-02-11T10:39:53;17.07;;;9.87;;
37495;SDS011;23346;52.088;4.746;2023-02-11T10:42:19;22.30;;;8.80;;
37495;SDS011;23346;52.088;4.746;2023-02-11T10:45:02;18.37;;;8.87;;
37495;SDS011;23346;52.088;4.746;2023-02-11T10:47:30;18.57;;;9.10;;
37495;SDS011;23346;52.088;4.746;2023-02-11T10:49:57;17.63;;;9.07;;
37495;SDS011;23346;52.088;4.746;2023-02-11T10:52:28;17.73;;;8.90;;
37495;SDS011;23346;52.088;4.746;2023-02-11T10:55:01;17.97;;;8.50;;
37495;SDS011;23346;52.088;4.746;2023-02-11T11:00:19;14.30;;;7.77;;
37495;SDS011;23346;52.088;4.746;2023-02-11T11:02:54;14.93;;;7.90;;
37495;SDS011;23346;52.088;4.746;2023-02-11T11:05:28;18.97;;;8.53;;
37495;SDS011;23346;52.088;4.746;2023-02-11T11:07:56;17.40;;;7.13;;
37495;SDS011;23346;52.088;4.746;2023-02-11T11:13:23;15.33;;;8.03;;
37495;SDS011;23346;52.088;4.746;2023-02-11T11:18:46;12.57;;;6.93;;
37495;SDS011;23346;52.088;4.746;2023-02-11T11:21:20;15.07;;;6.90;;
37495;SDS011;23346;52.088;4.746;2023-02-11T11:23:48;14.60;;;7.17;;
37495;SDS011;23346;52.088;4.746;2023-02-11T11:26:15;13.33;;;7.77;;
37495;SDS011;23346;52.088;4.746;2023-02-11T11:28:49;15.10;;;6.90;;
37495;SDS011;23346;52.088;4.746;2023-02-11T11:31:17;15.67;;;7.47;;
37495;SDS011;23346;52.088;4.746;2023-02-11T11:33:43;18.93;;;6.73;;
37495;SDS011;23346;52.088;4.746;2023-02-11T11:36:11;12.47;;;6.50;;
37495;SDS011;23346;52.088;4.746;2023-02-11T11:38:42;11.93;;;7.63;;
37495;SDS011;23346;52.088;4.746;2023-02-11T11:41:42;24.73;;;7.67;;
37495;SDS011;23346;52.088;4.746;2023-02-11T11:44:18;14.63;;;8.33;;
37495;SDS011;23346;52.088;4.746;2023-02-11T11:46:46;16.57;;;7.93;;
37495;SDS011;23346;52.088;4.746;2023-02-11T11:50:14;12.50;;;7.17;;
37495;SDS011;23346;52.088;4.746;2023-02-11T11:55:34;15.10;;;7.33;;
37495;SDS011;23346;52.088;4.746;2023-02-11T11:57:39;13.47;;;7.13;;
37495;SDS011;23346;52.088;4.746;2023-02-11T12:00:12;19.27;;;7.83;;
37495;SDS011;23346;52.088;4.746;2023-02-11T12:02:57;12.30;;;7.27;;
37495;SDS011;23346;52.088;4.746;2023-02-11T12:10:32;14.83;;;6.27;;
37495;SDS011;23346;52.088;4.746;2023-02-11T12:28:26;14.30;;;8.20;;
37495;SDS011;23346;52.088;4.746;2023-02-11T12:36:44;15.33;;;7.47;;
37495;SDS011;23346;52.088;4.746;2023-02-11T12:49:52;8.73;;;5.07;;
37495;SDS011;23346;52.088;4.746;2023-02-11T12:52:26;10.70;;;5.50;;
37495;SDS011;23346;52.088;4.746;2023-02-11T12:55:42;9.87;;;5.63;;
37495;SDS011;23346;52.088;4.746;2023-02-11T12:57:42;9.77;;;5.23;;
37495;SDS011;23346;52.088;4.746;2023-02-11T13:07:53;14.27;;;5.73;;
37495;SDS011;23346;52.088;4.746;2023-02-11T13:10:25;13.83;;;5.23;;
37495;SDS011;23346;52.088;4.746;2023-02-11T13:12:52;9.73;;;6.10;;
37495;SDS011;23346;52.088;4.746;2023-02-11T13:15:38;9.40;;;5.30;;
37495;SDS011;23346;52.088;4.746;2023-02-11T13:18:23;10.90;;;5.50;;
37495;SDS011;23346;52.088;4.746;2023-02-11T13:26:15;8.80;;;4.63;;
37495;SDS011;23346;52.088;4.746;2023-02-11T13:28:46;11.83;;;5.80;;
37495;SDS011;23346;52.088;4.746;2023-02-11T13:31:13;10.00;;;5.97;;
37495;SDS011;23346;52.088;4.746;2023-02-11T13:33:41;9.63;;;5.40;;
37495;SDS011;23346;52.088;4.746;2023-02-11T13:38:34;9.87;;;5.50;;
37495;SDS011;23346;52.088;4.746;2023-02-11T13:43:56;7.90;;;5.20;;
37495;SDS011;23346;52.088;4.746;2023-02-11T13:46:22;8.90;;;5.43;;
37495;SDS011;23346;52.088;4.746;2023-02-11T13:48:49;10.07;;;5.23;;
37495;SDS011;23346;52.088;4.746;2023-02-11T13:51:18;8.20;;;4.80;;
37495;SDS011;23346;52.088;4.746;2023-02-11T13:53:57;12.83;;;4.90;;
37495;SDS011;23346;52.088;4.746;2023-02-11T13:56:30;8.57;;;5.67;;
37495;SDS011;23346;52.088;4.746;2023-02-11T13:58:57;10.37;;;6.03;;
37495;SDS011;23346;52.088;4.746;2023-02-11T14:02:00;11.80;;;5.23;;
37495;SDS011;23346;52.088;4.746;2023-02-11T14:10:49;9.43;;;4.30;;
37495;SDS011;23346;52.088;4.746;2023-02-11T14:13:28;9.93;;;4.00;;
37495;SDS011;23346;52.088;4.746;2023-02-11T14:16:06;12.67;;;4.47;;
37495;SDS011;23346;52.088;4.746;2023-02-11T14:21:28;10.97;;;5.77;;
37495;SDS011;23346;52.088;4.746;2023-02-11T14:26:48;9.93;;;4.67;;
37495;SDS011;23346;52.088;4.746;2023-02-11T14:29:23;12.47;;;5.10;;
37495;SDS011;23346;52.088;4.746;2023-02-11T14:42:04;12.53;;;5.43;;
37495;SDS011;23346;52.088;4.746;2023-02-11T14:44:31;9.03;;;4.20;;
37495;SDS011;23346;52.088;4.746;2023-02-11T14:46:58;7.30;;;4.67;;
37495;SDS011;23346;52.088;4.746;2023-02-11T14:49:28;7.73;;;4.30;;
37495;SDS011;23346;52.088;4.746;2023-02-11T14:51:56;7.33;;;4.33;;
37495;SDS011;23346;52.088;4.746;2023-02-11T14:54:26;7.30;;;4.40;;
37495;SDS011;23346;52.088;4.746;2023-02-11T14:57:25;11.27;;;4.60;;
37495;SDS011;23346;52.088;4.746;2023-02-11T14:59:57;9.03;;;4.60;;
37495;SDS011;23346;52.088;4.746;2023-02-11T15:02:31;11.13;;;4.87;;
37495;SDS011;23346;52.088;4.746;2023-02-11T15:05:17;12.90;;;4.87;;
37495;SDS011;23346;52.088;4.746;2023-02-11T15:07:47;9.63;;;5.10;;
37495;SDS011;23346;52.088;4.746;2023-02-11T15:10:25;12.97;;;6.07;;
37495;SDS011;23346;52.088;4.746;2023-02-11T15:12:53;12.57;;;5.07;;
37495;SDS011;23346;52.088;4.746;2023-02-11T15:15:19;9.40;;;5.00;;
37495;SDS011;23346;52.088;4.746;2023-02-11T15:17:45;18.00;;;6.10;;
37495;SDS011;23346;52.088;4.746;2023-02-11T15:20:15;20.47;;;8.00;;
37495;SDS011;23346;52.088;4.746;2023-02-11T15:22:43;35.67;;;11.37;;
37495;SDS011;23346;52.088;4.746;2023-02-11T15:25:11;38.27;;;13.37;;
37495;SDS011;23346;52.088;4.746;2023-02-11T15:27:42;23.07;;;8.43;;
37495;SDS011;23346;52.088;4.746;2023-02-11T15:32:46;12.63;;;5.07;;
37495;SDS011;23346;52.088;4.746;2023-02-11T15:35:12;13.47;;;6.17;;
37495;SDS011;23346;52.088;4.746;2023-02-11T15:37:39;11.40;;;5.10;;
37495;SDS011;23346;52.088;4.746;2023-02-11T15:40:13;14.03;;;5.33;;
37495;SDS011;23346;52.088;4.746;2023-02-11T15:42:39;11.67;;;4.43;;
37495;SDS011;23346;52.088;4.746;2023-02-11T15:45:21;10.50;;;5.63;;
37495;SDS011;23346;52.088;4.746;2023-02-11T15:47:51;14.03;;;5.63;;
37495;SDS011;23346;52.088;4.746;2023-02-11T15:50:39;14.27;;;5.80;;
37495;SDS011;23346;52.088;4.746;2023-02-11T15:53:14;12.07;;;5.53;;
37495;SDS011;23346;52.088;4.746;2023-02-11T15:55:44;11.27;;;5.27;;
37495;SDS011;23346;52.088;4.746;2023-02-11T15:58:10;17.40;;;5.30;;
37495;SDS011;23346;52.088;4.746;2023-02-11T16:00:45;11.67;;;5.27;;
37495;SDS011;23346;52.088;4.746;2023-02-11T16:03:23;10.37;;;5.03;;
37495;SDS011;23346;52.088;4.746;2023-02-11T16:05:50;8.57;;;5.13;;
37495;SDS011;23346;52.088;4.746;2023-02-11T16:08:21;8.73;;;5.13;;
37495;SDS011;23346;52.088;4.746;2023-02-11T16:10:58;11.67;;;4.57;;
37495;SDS011;23346;52.088;4.746;2023-02-11T16:13:27;10.70;;;5.60;;
37495;SDS011;23346;52.088;4.746;2023-02-11T16:16:01;9.93;;;5.07;;
37495;SDS011;23346;52.088;4.746;2023-02-11T16:20:54;10.30;;;5.33;;
37495;SDS011;23346;52.088;4.746;2023-02-11T16:23:27;10.50;;;5.00;;
37495;SDS011;23346;52.088;4.746;2023-02-11T16:25:56;9.97;;;5.37;;
37495;SDS011;23346;52.088;4.746;2023-02-11T16:28:23;10.87;;;5.97;;
37495;SDS011;23346;52.088;4.746;2023-02-11T16:30:52;11.63;;;5.63;;
37495;SDS011;23346;52.088;4.746;2023-02-11T16:33:19;18.27;;;6.70;;
37495;SDS011;23346;52.088;4.746;2023-02-11T16:35:45;10.87;;;5.53;;
37495;SDS011;23346;52.088;4.746;2023-02-11T16:38:12;10.63;;;5.50;;
37495;SDS011;23346;52.088;4.746;2023-02-11T16:40:38;12.03;;;5.33;;
37495;SDS011;23346;52.088;4.746;2023-02-11T16:43:06;14.20;;;5.50;;
37495;SDS011;23346;52.088;4.746;2023-02-11T16:45:33;13.70;;;5.67;;
37495;SDS011;23346;52.088;4.746;2023-02-11T16:48:02;9.77;;;4.83;;
37495;SDS011;23346;52.088;4.746;2023-02-11T16:50:28;10.07;;;5.97;;
37495;SDS011;23346;52.088;4.746;2023-02-11T16:52:54;12.97;;;5.47;;
37495;SDS011;23346;52.088;4.746;2023-02-11T16:55:20;13.27;;;6.20;;
37495;SDS011;23346;52.088;4.746;2023-02-11T16:57:46;11.23;;;5.83;;
37495;SDS011;23346;52.088;4.746;2023-02-11T17:00:14;15.40;;;6.63;;
37495;SDS011;23346;52.088;4.746;2023-02-11T17:02:40;18.10;;;6.50;;
37495;SDS011;23346;52.088;4.746;2023-02-11T17:05:10;13.20;;;5.73;;
37495;SDS011;23346;52.088;4.746;2023-02-11T17:07:40;15.03;;;5.80;;